Gibsonburg, Ohio
Current Conditions -  °F | °C
As of 4:53 AM on Friday 21 Nov 2014 (Local Time) from KTDZ Reporting Station
Overcast Overcast  
Wind Chill: 12°   Ceiling: 5000
Heat Index: 20°   Visibility: 10mi
Dew Point: 12°   Wind: 6mph
Humidity: 71%   Direction: 280°W
Pressure: 30.35"   Gusts: NA
Location:  41.38°N, 83.32°W
Report Text: KTDZ 210953Z AUTO 28005KT 10SM OVC050 M07/M11 A3035 RMK AO2 SLP286 T10671111 TSNO
Loading
Personal Weather Stations






























Interactive Weather Map New forecast layout! Learn more

10-Day Weather Forecast

Advertisements
Track Severe Weather on mobile